createdAt,value
2018-11-14T00:00:42.405Z,12.6
2018-11-14T00:01:42.159Z,12.57
2018-11-14T00:02:42.722Z,12.61
2018-11-14T00:03:42.467Z,12.6
2018-11-14T00:04:42.488Z,12.54
2018-11-14T00:05:42.785Z,12.62
2018-11-14T00:06:42.535Z,12.73
2018-11-14T00:07:42.295Z,12.58
2018-11-14T00:08:42.571Z,12.67
2018-11-14T00:09:42.525Z,12.58
2018-11-14T00:10:42.629Z,12.57
2018-11-14T00:11:42.380Z,12.61
2018-11-14T00:12:42.663Z,12.61
2018-11-14T00:13:42.946Z,12.58
2018-11-14T00:14:42.432Z,12.57
2018-11-14T00:15:42.456Z,12.6
2018-11-14T00:16:42.762Z,12.72
2018-11-14T00:17:42.763Z,12.72
2018-11-14T00:18:43.057Z,12.61
2018-11-14T00:19:42.822Z,12.68
2018-11-14T00:20:42.831Z,12.7
2018-11-14T00:21:42.875Z,12.68
2018-11-14T00:22:42.876Z,12.75
2018-11-14T00:23:42.623Z,12.64
2018-11-14T00:24:42.954Z,12.64
2018-11-14T00:25:42.936Z,12.76
2018-11-14T00:26:42.752Z,12.72
2018-11-14T00:27:43.116Z,12.76
2018-11-14T00:28:43.006Z,12.72
2018-11-14T00:29:44.012Z,12.67
2018-11-14T00:30:42.779Z,12.65
2018-11-14T00:31:43.064Z,12.78
2018-11-14T00:32:43.094Z,12.65
2018-11-14T00:33:43.161Z,12.7
2018-11-14T00:34:43.257Z,12.7
2018-11-14T00:35:43.369Z,12.75
2018-11-14T00:36:43.182Z,12.79
2018-11-14T00:37:42.927Z,12.68
2018-11-14T00:38:42.949Z,12.75
2018-11-14T00:39:43.240Z,12.8
2018-11-14T00:40:43.260Z,12.7
2018-11-14T00:41:43.023Z,12.82
2018-11-14T00:42:43.601Z,12.79
2018-11-14T00:43:43.589Z,12.78
2018-11-14T00:44:43.346Z,12.73
2018-11-14T00:45:43.098Z,12.79
2018-11-14T00:46:43.651Z,12.8
2018-11-14T00:47:43.427Z,12.73
2018-11-14T00:48:43.161Z,12.78
2018-11-14T00:49:43.470Z,12.78
2018-11-14T00:50:43.203Z,12.87
2018-11-14T00:51:43.505Z,12.8
2018-11-14T00:52:43.248Z,12.83
2018-11-14T00:53:43.541Z,12.76
2018-11-14T00:54:43.879Z,12.76
2018-11-14T00:55:43.575Z,12.79
2018-11-14T00:56:43.608Z,12.8
2018-11-14T00:57:43.622Z,12.79
2018-11-14T00:58:43.651Z,12.76
2018-11-14T00:59:43.671Z,12.79
2018-11-14T01:00:43.686Z,12.75
2018-11-14T01:01:44.054Z,12.87
2018-11-14T01:02:43.741Z,12.79
2018-11-14T01:03:44.035Z,12.87
2018-11-14T01:04:43.791Z,12.82
2018-11-14T01:05:43.796Z,12.76
2018-11-14T01:06:43.822Z,12.82
2018-11-14T01:07:43.580Z,12.8
2018-11-14T01:08:43.597Z,12.78
2018-11-14T01:09:43.883Z,12.78
2018-11-14T01:10:43.643Z,12.78
2018-11-14T01:11:43.666Z,12.68
2018-11-14T01:12:43.681Z,12.8
2018-11-14T01:13:43.705Z,12.82
2018-11-14T01:14:43.995Z,12.76
2018-11-14T01:15:44.026Z,12.8
2018-11-14T01:16:44.038Z,12.73
2018-11-14T01:17:44.350Z,12.78
2018-11-14T01:18:44.091Z,12.76
2018-11-14T01:19:44.097Z,12.8
2018-11-14T01:20:44.131Z,12.8
2018-11-14T01:21:44.189Z,12.68
2018-11-14T01:22:44.166Z,12.68
2018-11-14T01:23:44.187Z,12.78
2018-11-14T01:24:44.226Z,12.73
2018-11-14T01:25:43.961Z,12.75
2018-11-14T01:26:44.519Z,12.72
2018-11-14T01:27:44.544Z,12.72
2018-11-14T01:28:44.028Z,12.73
2018-11-14T01:29:44.330Z,12.75
2018-11-14T01:30:44.085Z,12.68
2018-11-14T01:31:44.369Z,12.58
2018-11-14T01:32:44.377Z,12.68
2018-11-14T01:33:44.134Z,12.76
2018-11-14T01:34:44.160Z,12.75
2018-11-14T01:35:44.603Z,12.75
2018-11-14T01:36:44.199Z,12.76
2018-11-14T01:37:44.222Z,12.78
2018-11-14T01:38:44.257Z,12.67
2018-11-14T01:39:44.266Z,12.75
2018-11-14T01:40:44.552Z,12.72
2018-11-14T01:41:44.846Z,12.7
2018-11-14T01:42:44.874Z,12.67
2018-11-14T01:43:44.349Z,12.6
2018-11-14T01:44:44.641Z,12.67
2018-11-14T01:45:44.395Z,12.7
2018-11-14T01:46:44.705Z,12.78
2018-11-14T01:47:44.723Z,12.72
2018-11-14T01:48:44.458Z,12.75
2018-11-14T01:49:44.745Z,12.73
2018-11-14T01:50:44.774Z,12.7
2018-11-14T01:51:44.532Z,12.72
2018-11-14T01:52:44.826Z,12.73
2018-11-14T01:53:45.105Z,12.73
2018-11-14T01:54:44.881Z,12.67
2018-11-14T01:55:44.611Z,12.68
2018-11-14T01:56:44.914Z,12.76
2018-11-14T01:57:44.651Z,12.67
2018-11-14T01:58:45.216Z,12.7
2018-11-14T01:59:44.975Z,12.72
2018-11-14T02:00:44.724Z,12.67
2018-11-14T02:01:45.014Z,12.76
2018-11-14T02:02:45.033Z,12.67
2018-11-14T02:03:45.051Z,12.68
2018-11-14T02:04:45.085Z,12.76
2018-11-14T02:05:44.823Z,12.68
2018-11-14T02:06:44.858Z,12.7
2018-11-14T02:07:45.407Z,12.65
2018-11-14T02:08:44.907Z,12.68
2018-11-14T02:09:45.178Z,12.75
2018-11-14T02:10:45.212Z,12.75
2018-11-14T02:11:45.220Z,12.7
2018-11-14T02:12:44.982Z,12.67
2018-11-14T02:13:45.014Z,12.64
2018-11-14T02:14:45.284Z,12.68
2018-11-14T02:15:45.033Z,12.7
2018-11-14T02:16:45.331Z,12.68
2018-11-14T02:17:45.083Z,12.61
2018-11-14T02:18:45.633Z,12.6
2018-11-14T02:19:45.413Z,12.58
2018-11-14T02:20:45.144Z,12.54
2018-11-14T02:21:45.172Z,12.62
2018-11-14T02:22:45.193Z,12.58
2018-11-14T02:23:45.475Z,12.61
2018-11-14T02:24:45.227Z,12.58
2018-11-14T02:25:45.259Z,12.61
2018-11-14T02:26:45.537Z,12.62
2018-11-14T02:27:45.293Z,12.6
2018-11-14T02:28:45.584Z,12.61
2018-11-14T02:29:45.882Z,12.61
2018-11-14T02:30:45.910Z,12.64
2018-11-14T02:31:45.388Z,12.61
2018-11-14T02:32:45.668Z,12.61
2018-11-14T02:33:45.707Z,12.61
2018-11-14T02:34:45.717Z,12.64
2018-11-14T02:35:45.462Z,12.61
2018-11-14T02:36:45.768Z,12.58
2018-11-14T02:37:45.519Z,12.61
2018-11-14T02:38:45.799Z,12.57
2018-11-14T02:39:45.832Z,12.61
2018-11-14T02:40:45.865Z,12.61
2018-11-14T02:41:45.858Z,12.57
2018-11-14T02:42:45.622Z,12.53
2018-11-14T02:43:45.662Z,12.53
2018-11-14T02:44:45.668Z,12.55
2018-11-14T02:45:46.223Z,12.6
2018-11-14T02:46:45.969Z,12.55
2018-11-14T02:47:46.002Z,12.6
2018-11-14T02:48:46.283Z,12.55
2018-11-14T02:49:46.058Z,12.54
2018-11-14T02:50:46.047Z,12.61
2018-11-14T02:51:46.073Z,12.61
2018-11-14T02:52:46.126Z,12.57
2018-11-14T02:53:46.137Z,12.53
2018-11-14T02:54:46.140Z,12.54
2018-11-14T02:55:45.889Z,12.57
2018-11-14T02:56:46.188Z,12.55
2018-11-14T02:57:46.213Z,12.54
2018-11-14T02:58:46.484Z,12.57
2018-11-14T02:59:46.255Z,12.61
2018-11-14T03:00:46.531Z,12.54
2018-11-14T03:01:46.292Z,12.6
2018-11-14T03:02:46.044Z,12.55
2018-11-14T03:03:46.345Z,12.58
2018-11-14T03:04:46.367Z,12.57
2018-11-14T03:05:46.382Z,12.58
2018-11-14T03:06:46.135Z,12.58
2018-11-14T03:07:46.160Z,12.61
2018-11-14T03:08:46.166Z,12.61
2018-11-14T03:09:46.462Z,12.54
2018-11-14T03:10:46.485Z,12.62
2018-11-14T03:11:46.509Z,12.6
2018-11-14T03:12:46.518Z,12.58
2018-11-14T03:13:46.284Z,12.6
2018-11-14T03:14:46.579Z,12.57
2018-11-14T03:15:46.599Z,12.6
2018-11-14T03:16:46.890Z,12.54
2018-11-14T03:17:46.366Z,12.6
2018-11-14T03:18:46.653Z,12.58
2018-11-14T03:19:46.944Z,12.6
2018-11-14T03:20:46.691Z,12.61
2018-11-14T03:21:46.712Z,12.54
2018-11-14T03:22:46.738Z,12.57
2018-11-14T03:23:46.496Z,12.55
2018-11-14T03:24:46.778Z,12.58
2018-11-14T03:25:47.081Z,12.61
2018-11-14T03:26:46.842Z,12.62
2018-11-14T03:27:47.113Z,12.64
2018-11-14T03:28:46.874Z,12.58
2018-11-14T03:29:46.889Z,12.6
2018-11-14T03:30:46.637Z,12.61
2018-11-14T03:31:46.664Z,12.54
2018-11-14T03:32:47.228Z,12.58
2018-11-14T03:33:47.230Z,12.55
2018-11-14T03:34:47.005Z,12.58
2018-11-14T03:35:47.027Z,12.6
2018-11-14T03:36:47.311Z,12.57
2018-11-14T03:37:47.063Z,12.58
2018-11-14T03:38:47.078Z,12.6
2018-11-14T03:39:47.107Z,12.61
2018-11-14T03:40:47.382Z,12.57
2018-11-14T03:41:47.420Z,12.64
2018-11-14T03:42:47.178Z,12.55
2018-11-14T03:43:47.185Z,12.64
2018-11-14T03:44:47.199Z,12.6
2018-11-14T03:45:47.219Z,12.58
2018-11-14T03:46:47.244Z,12.61
2018-11-14T03:47:47.284Z,12.6
2018-11-14T03:48:47.288Z,12.61
2018-11-14T03:49:47.308Z,12.6
2018-11-14T03:50:47.331Z,12.58
2018-11-14T03:51:47.089Z,12.58
2018-11-14T03:52:47.634Z,12.6
2018-11-14T03:53:47.673Z,12.58
2018-11-14T03:54:47.162Z,12.57
2018-11-14T03:55:47.438Z,12.58
2018-11-14T03:56:47.716Z,12.57
2018-11-14T03:57:47.215Z,12.57
2018-11-14T03:58:47.231Z,12.62
2018-11-14T03:59:47.531Z,12.5
2018-11-14T04:00:47.554Z,12.54
2018-11-14T04:01:47.560Z,12.54
2018-11-14T04:02:47.326Z,12.53
2018-11-14T04:03:47.337Z,12.54
2018-11-14T04:04:47.362Z,12.55
2018-11-14T04:05:47.661Z,12.54
2018-11-14T04:06:47.671Z,12.49
2018-11-14T04:07:47.427Z,12.54
2018-11-14T04:08:47.455Z,12.55
2018-11-14T04:09:47.470Z,12.53
2018-11-14T04:10:47.489Z,12.55
2018-11-14T04:11:47.506Z,12.45
2018-11-14T04:12:47.803Z,12.46
2018-11-14T04:13:47.823Z,12.5
2018-11-14T04:14:47.837Z,12.47
2018-11-14T04:15:47.859Z,12.53
2018-11-14T04:16:47.618Z,12.53
2018-11-14T04:17:47.926Z,12.45
2018-11-14T04:18:48.205Z,12.45
2018-11-14T04:19:48.214Z,12.42
2018-11-14T04:20:47.703Z,12.45
2018-11-14T04:21:48.276Z,12.42
2018-11-14T04:22:48.054Z,12.42
2018-11-14T04:23:48.048Z,12.4
2018-11-14T04:24:47.784Z,12.43
2018-11-14T04:25:48.101Z,12.43
2018-11-14T04:26:48.357Z,12.46
2018-11-14T04:27:48.118Z,12.42
2018-11-14T04:28:47.874Z,12.43
2018-11-14T04:29:48.430Z,12.4
2018-11-14T04:30:48.204Z,12.49
2018-11-14T04:31:47.932Z,12.42
2018-11-14T04:32:47.954Z,12.42
2018-11-14T04:33:48.239Z,12.43
2018-11-14T04:34:48.268Z,12.39
2018-11-14T04:35:48.302Z,12.46
2018-11-14T04:36:48.305Z,12.37
2018-11-14T04:37:48.608Z,12.32
2018-11-14T04:38:48.076Z,12.45
2018-11-14T04:39:48.367Z,12.39
2018-11-14T04:40:48.393Z,12.37
2018-11-14T04:41:48.403Z,12.42
2018-11-14T04:42:48.180Z,12.37
2018-11-14T04:43:48.448Z,12.36
2018-11-14T04:44:48.471Z,12.35
2018-11-14T04:45:48.488Z,12.39
2018-11-14T04:46:48.522Z,12.36
2018-11-14T04:47:48.580Z,12.43
2018-11-14T04:48:48.294Z,12.43
2018-11-14T04:49:48.581Z,12.35
2018-11-14T04:50:48.612Z,12.43
2018-11-14T04:51:48.622Z,12.37
2018-11-14T04:52:48.392Z,12.4
2018-11-14T04:53:48.671Z,12.4
2018-11-14T04:54:48.691Z,12.42
2018-11-14T04:55:48.435Z,12.4
2018-11-14T04:56:48.992Z,12.36
2018-11-14T04:57:48.753Z,12.4
2018-11-14T04:58:49.042Z,12.4
2018-11-14T04:59:48.519Z,12.35
2018-11-14T05:00:48.537Z,12.29
2018-11-14T05:01:48.575Z,12.36
2018-11-14T05:02:48.849Z,12.35
2018-11-14T05:03:48.600Z,12.35
2018-11-14T05:04:48.891Z,12.29
2018-11-14T05:05:48.646Z,12.27
2018-11-14T05:06:48.686Z,12.31
2018-11-14T05:07:49.231Z,12.25
2018-11-14T05:08:48.987Z,12.28
2018-11-14T05:09:49.004Z,12.24
2018-11-14T05:10:48.755Z,12.21
2018-11-14T05:11:49.037Z,12.28
2018-11-14T05:12:48.826Z,12.29
2018-11-14T05:13:48.831Z,12.22
2018-11-14T05:14:49.378Z,12.25
2018-11-14T05:15:49.139Z,12.18
2018-11-14T05:16:49.143Z,12.24
2018-11-14T05:17:48.905Z,12.22
2018-11-14T05:18:49.183Z,12.15
2018-11-14T05:19:49.215Z,12.17
2018-11-14T05:20:49.492Z,12.12
2018-11-14T05:21:49.521Z,12.12
2018-11-14T05:22:49.568Z,12.15
2018-11-14T05:23:49.308Z,12.17
2018-11-14T05:24:50.039Z,12.2
2018-11-14T05:25:49.329Z,12.09
2018-11-14T05:26:49.349Z,12.17
2018-11-14T05:27:49.371Z,12.12
2018-11-14T05:28:49.387Z,12.12
2018-11-14T05:29:49.153Z,12.13
2018-11-14T05:30:49.457Z,12.17
2018-11-14T05:31:49.600Z,12.15
2018-11-14T05:32:49.217Z,12.12
2018-11-14T05:33:49.768Z,12.13
2018-11-14T05:34:49.527Z,12.2
2018-11-14T05:35:49.274Z,12.17
2018-11-14T05:36:49.301Z,12.2
2018-11-14T05:37:49.581Z,12.1
2018-11-14T05:38:49.891Z,12.12
2018-11-14T05:39:50.374Z,12.18
2018-11-14T05:40:49.386Z,12.09
2018-11-14T05:41:49.397Z,12.12
2018-11-14T05:42:49.687Z,12.12
2018-11-14T05:43:49.448Z,12.17
2018-11-14T05:44:49.457Z,12.07
2018-11-14T05:45:49.479Z,12.07
2018-11-14T05:46:49.766Z,12.12
2018-11-14T05:47:49.798Z,12.22
2018-11-14T05:48:49.557Z,12.09
2018-11-14T05:49:49.858Z,12.13
2018-11-14T05:50:49.853Z,12.17
2018-11-14T05:51:49.615Z,12.09
2018-11-14T05:52:50.185Z,12.04
2018-11-14T05:53:49.919Z,12.04
2018-11-14T05:54:50.048Z,12.09
2018-11-14T05:55:49.955Z,12.07
2018-11-14T05:56:49.986Z,12.04
2018-11-14T05:57:50.003Z,12.06
2018-11-14T05:58:49.759Z,12.06
2018-11-14T05:59:49.784Z,12.07
2018-11-14T06:00:50.075Z,12.03
2018-11-14T06:01:49.815Z,12.04
2018-11-14T06:02:50.103Z,12.06
2018-11-14T06:03:50.135Z,12.02
2018-11-14T06:04:49.887Z,12
2018-11-14T06:05:50.181Z,12.02
2018-11-14T06:06:50.191Z,11.99
2018-11-14T06:07:50.209Z,11.94
2018-11-14T06:08:49.977Z,12.02
2018-11-14T06:09:49.989Z,11.9
2018-11-14T06:10:50.553Z,11.88
2018-11-14T06:11:50.296Z,11.88
2018-11-14T06:12:50.044Z,11.95
2018-11-14T06:13:50.345Z,11.99
2018-11-14T06:14:50.634Z,11.95
2018-11-14T06:15:50.377Z,11.84
2018-11-14T06:16:50.393Z,12.03
2018-11-14T06:17:50.437Z,11.9
2018-11-14T06:18:50.178Z,12
2018-11-14T06:19:50.196Z,11.95
2018-11-14T06:20:50.747Z,11.99
2018-11-14T06:21:50.622Z,11.81
2018-11-14T06:22:50.517Z,11.86
2018-11-14T06:23:50.273Z,11.99
2018-11-14T06:24:50.832Z,11.95
2018-11-14T06:25:50.583Z,12.02
2018-11-14T06:26:50.344Z,11.95
2018-11-14T06:27:50.939Z,11.91
2018-11-14T06:28:50.924Z,11.91
2018-11-14T06:29:50.808Z,11.9
2018-11-14T06:30:50.726Z,11.95
2018-11-14T06:31:50.442Z,11.91
2018-11-14T06:32:50.743Z,11.88
2018-11-14T06:33:50.749Z,11.83
2018-11-14T06:34:50.519Z,11.91
2018-11-14T06:35:50.793Z,11.88
2018-11-14T06:36:50.553Z,11.94
2018-11-14T06:37:50.577Z,11.91
2018-11-14T06:38:50.587Z,11.87
2018-11-14T06:39:50.932Z,11.97
2018-11-14T06:40:50.919Z,11.87
2018-11-14T06:41:50.778Z,11.87
2018-11-14T06:42:50.938Z,11.86
2018-11-14T06:43:50.701Z,11.83
2018-11-14T06:44:50.979Z,11.8
2018-11-14T06:45:50.735Z,11.88
2018-11-14T06:46:50.761Z,11.81
2018-11-14T06:47:51.038Z,11.78
2018-11-14T06:48:51.062Z,11.8
2018-11-14T06:49:50.933Z,11.77
2018-11-14T06:50:50.834Z,11.83
2018-11-14T06:51:51.129Z,11.81
2018-11-14T06:52:51.186Z,11.75
2018-11-14T06:53:51.183Z,11.73
2018-11-14T06:54:51.196Z,11.78
2018-11-14T06:55:51.221Z,11.75
2018-11-14T06:56:51.240Z,11.78
2018-11-14T06:57:51.261Z,11.77
2018-11-14T06:58:51.505Z,11.77
2018-11-14T06:59:52.056Z,11.81
2018-11-14T07:00:51.311Z,11.81
2018-11-14T07:01:51.339Z,11.81
2018-11-14T07:02:51.373Z,11.84
2018-11-14T07:03:51.395Z,11.73
2018-11-14T07:04:51.787Z,11.78
2018-11-14T07:05:51.271Z,11.78
2018-11-14T07:06:51.447Z,11.75
2018-11-14T07:07:51.210Z,11.75
2018-11-14T07:08:51.759Z,11.78
2018-11-14T07:09:51.248Z,11.77
2018-11-14T07:10:51.315Z,11.73
2018-11-14T07:11:51.544Z,11.8
2018-11-14T07:12:51.299Z,11.73
2018-11-14T07:13:51.601Z,11.78
2018-11-14T07:14:51.877Z,11.75
2018-11-14T07:15:51.631Z,11.78
2018-11-14T07:16:51.374Z,11.81
2018-11-14T07:17:51.819Z,11.73
2018-11-14T07:18:51.416Z,11.83
2018-11-14T07:19:51.710Z,11.77
2018-11-14T07:20:51.727Z,11.78
2018-11-14T07:21:51.478Z,11.77
2018-11-14T07:22:52.035Z,11.77
2018-11-14T07:23:52.003Z,11.8
2018-11-14T07:24:52.238Z,11.78
2018-11-14T07:25:51.842Z,11.8
2018-11-14T07:26:51.594Z,11.8
2018-11-14T07:27:51.882Z,11.86
2018-11-14T07:28:51.894Z,11.8
2018-11-14T07:29:52.195Z,11.84
2018-11-14T07:30:52.007Z,11.78
2018-11-14T07:31:51.687Z,11.88
2018-11-14T07:32:51.712Z,11.83
2018-11-14T07:33:52.011Z,11.97
2018-11-14T07:34:52.284Z,11.94
2018-11-14T07:35:51.778Z,11.86
2018-11-14T07:36:51.791Z,11.9
2018-11-14T07:37:52.204Z,11.86
2018-11-14T07:38:52.098Z,11.88
2018-11-14T07:39:52.130Z,11.83
2018-11-14T07:40:51.871Z,11.87
2018-11-14T07:41:52.161Z,11.91
2018-11-14T07:42:52.185Z,11.94
2018-11-14T07:43:52.433Z,11.94
2018-11-14T07:44:52.502Z,11.95
2018-11-14T07:45:52.255Z,12.04
2018-11-14T07:46:52.280Z,11.95
2018-11-14T07:47:52.289Z,12
2018-11-14T07:48:52.502Z,11.95
2018-11-14T07:49:52.664Z,12.04
2018-11-14T07:50:52.632Z,12
2018-11-14T07:51:52.114Z,12.07
2018-11-14T07:52:52.406Z,12.13
2018-11-14T07:53:52.404Z,12.07
2018-11-14T07:54:52.563Z,12.06
2018-11-14T07:55:52.184Z,12.04
2018-11-14T07:56:52.475Z,12.06
2018-11-14T07:57:52.225Z,12.09
2018-11-14T07:58:52.782Z,12.09
2018-11-14T07:59:52.267Z,12.24
2018-11-14T08:00:52.563Z,12.18
2018-11-14T08:01:52.305Z,12.24
2018-11-14T08:02:52.870Z,12.21
2018-11-14T08:03:52.352Z,12.31
2018-11-14T08:04:52.632Z,12.24
2018-11-14T08:05:52.654Z,12.21
2018-11-14T08:06:52.410Z,12.24
2018-11-14T08:07:52.885Z,12.35
2018-11-14T08:08:52.451Z,12.29
2018-11-14T08:09:52.741Z,12.37
2018-11-14T08:10:52.499Z,12.31
2018-11-14T08:11:52.793Z,12.36
2018-11-14T08:12:52.535Z,12.36
2018-11-14T08:13:52.823Z,12.36
2018-11-14T08:14:52.842Z,12.32
2018-11-14T08:15:53.138Z,12.39
2018-11-14T08:16:52.620Z,12.39
2018-11-14T08:17:52.913Z,12.43
2018-11-14T08:18:53.080Z,12.4
2018-11-14T08:19:52.945Z,12.46
2018-11-14T08:20:53.247Z,12.47
2018-11-14T08:21:53.000Z,12.47
2018-11-14T08:22:53.007Z,12.5
2018-11-14T08:23:53.043Z,12.53
2018-11-14T08:24:52.792Z,12.58
2018-11-14T08:25:53.077Z,12.54
2018-11-14T08:26:52.839Z,12.58
2018-11-14T08:27:53.130Z,12.61
2018-11-14T08:28:53.417Z,12.62
2018-11-14T08:29:52.886Z,12.54
2018-11-14T08:30:53.199Z,12.55
2018-11-14T08:31:53.474Z,12.54
2018-11-14T08:32:53.228Z,12.73
2018-11-14T08:33:52.978Z,12.76
2018-11-14T08:34:53.264Z,12.61
2018-11-14T08:35:53.284Z,12.68
2018-11-14T08:36:53.571Z,12.55
2018-11-14T08:37:53.058Z,12.68
2018-11-14T08:38:53.083Z,12.67
2018-11-14T08:39:53.359Z,12.76
2018-11-14T08:40:53.115Z,12.7
2018-11-14T08:41:53.683Z,12.78
2018-11-14T08:42:53.427Z,12.7
2018-11-14T08:43:53.736Z,12.78
2018-11-14T08:44:53.470Z,12.8
2018-11-14T08:45:53.750Z,12.76
2018-11-14T08:46:53.790Z,12.85
2018-11-14T08:47:53.278Z,12.83
2018-11-14T08:48:53.548Z,12.86
2018-11-14T08:49:53.303Z,12.87
2018-11-14T08:50:53.600Z,12.93
2018-11-14T08:51:53.615Z,12.93
2018-11-14T08:52:53.901Z,12.91
2018-11-14T08:53:53.659Z,12.86
2018-11-14T08:54:53.695Z,13
2018-11-14T08:55:53.442Z,13.04
2018-11-14T08:56:53.731Z,12.97
2018-11-14T08:57:53.871Z,12.98
2018-11-14T08:58:53.775Z,13
2018-11-14T08:59:53.780Z,13.08
2018-11-14T09:00:53.538Z,13.04
2018-11-14T09:01:53.822Z,13.04
2018-11-14T09:02:53.856Z,13.03
2018-11-14T09:03:53.624Z,13.03
2018-11-14T09:04:53.618Z,13.05
2018-11-14T09:05:53.641Z,12.98
2018-11-14T09:06:53.932Z,13.05
2018-11-14T09:07:54.199Z,13.11
2018-11-14T09:08:53.972Z,13.11
2018-11-14T09:09:53.729Z,13.11
2018-11-14T09:10:53.760Z,13.16
2018-11-14T09:11:54.043Z,13.12
2018-11-14T09:12:54.610Z,13.15
2018-11-14T09:13:54.074Z,13.13
2018-11-14T09:14:54.268Z,13.12
2018-11-14T09:15:54.140Z,13.16
2018-11-14T09:16:54.421Z,13.16
2018-11-14T09:17:54.183Z,13.13
2018-11-14T09:18:54.731Z,13.18
2018-11-14T09:19:53.935Z,13.23
2018-11-14T09:20:54.248Z,13.16
2018-11-14T09:21:53.981Z,13.27
2018-11-14T09:22:54.282Z,13.18
2018-11-14T09:23:54.550Z,13.22
2018-11-14T09:24:54.435Z,13.13
2018-11-14T09:25:54.607Z,13.25
2018-11-14T09:26:54.371Z,13.27
2018-11-14T09:27:54.392Z,13.33
2018-11-14T09:28:54.135Z,13.27
2018-11-14T09:29:54.435Z,13.37
2018-11-14T09:30:54.714Z,13.28
2018-11-14T09:31:54.190Z,13.38
2018-11-14T09:32:54.268Z,13.39
2018-11-14T09:33:54.503Z,13.41
2018-11-14T09:34:54.524Z,13.42
2018-11-14T09:35:54.546Z,13.31
2018-11-14T09:36:54.562Z,13.42
2018-11-14T09:37:54.867Z,13.3
2018-11-14T09:38:54.621Z,13.37
2018-11-14T09:39:54.641Z,13.38
2018-11-14T09:40:54.830Z,13.42
2018-11-14T09:41:54.412Z,13.41
2018-11-14T09:42:54.965Z,13.41
2018-11-14T09:43:54.479Z,13.46
2018-11-14T09:44:54.728Z,13.42
2018-11-14T09:45:54.500Z,13.38
2018-11-14T09:46:54.788Z,13.42
2018-11-14T09:47:54.789Z,13.41
2018-11-14T09:48:54.547Z,13.42
2018-11-14T09:49:54.574Z,13.38
2018-11-14T09:50:54.588Z,13.62
2018-11-14T09:51:55.142Z,13.41
2018-11-14T09:52:54.637Z,13.44
2018-11-14T09:53:55.193Z,13.49
2018-11-14T09:54:55.220Z,13.42
2018-11-14T09:55:54.959Z,13.57
2018-11-14T09:56:55.765Z,13.59
2018-11-14T09:57:54.739Z,13.41
2018-11-14T09:58:54.757Z,13.54
2018-11-14T09:59:55.058Z,13.47
2018-11-14T10:00:55.082Z,13.57
2018-11-14T10:01:55.094Z,13.49
2018-11-14T10:02:55.431Z,13.54
2018-11-14T10:03:55.144Z,13.53
2018-11-14T10:04:54.894Z,13.52
2018-11-14T10:05:54.905Z,13.49
2018-11-14T10:06:55.464Z,13.56
2018-11-14T10:07:54.954Z,13.52
2018-11-14T10:08:55.292Z,13.62
2018-11-14T10:09:54.989Z,13.59
2018-11-14T10:10:55.419Z,13.6
2018-11-14T10:11:55.301Z,13.6
2018-11-14T10:12:55.602Z,13.6
2018-11-14T10:13:55.090Z,13.56
2018-11-14T10:14:55.370Z,13.59
2018-11-14T10:15:55.117Z,13.62
2018-11-14T10:16:55.416Z,13.54
2018-11-14T10:17:55.164Z,13.59
2018-11-14T10:18:55.715Z,13.59
2018-11-14T10:19:55.464Z,13.57
2018-11-14T10:20:55.497Z,13.65
2018-11-14T10:21:55.512Z,13.63
2018-11-14T10:22:55.267Z,13.65
2018-11-14T10:23:55.283Z,13.57
2018-11-14T10:24:55.967Z,13.59
2018-11-14T10:25:55.855Z,13.59
2018-11-14T10:26:55.880Z,13.71
2018-11-14T10:27:55.944Z,13.57
2018-11-14T10:28:55.389Z,13.65
2018-11-14T10:29:55.694Z,13.56
2018-11-14T10:30:55.879Z,13.59
2018-11-14T10:31:55.722Z,13.71
2018-11-14T10:32:56.008Z,13.63
2018-11-14T10:33:56.048Z,13.59
2018-11-14T10:34:56.063Z,13.6
2018-11-14T10:35:55.542Z,13.59
2018-11-14T10:36:55.566Z,13.63
2018-11-14T10:37:56.124Z,13.57
2018-11-14T10:38:55.603Z,13.54
2018-11-14T10:39:55.625Z,13.6
2018-11-14T10:40:55.922Z,13.6
2018-11-14T10:41:55.932Z,13.57
2018-11-14T10:42:56.116Z,13.65
2018-11-14T10:43:56.251Z,13.56
2018-11-14T10:44:55.993Z,13.6
2018-11-14T10:45:56.026Z,13.59
2018-11-14T10:46:56.044Z,13.68
2018-11-14T10:47:56.072Z,13.65
2018-11-14T10:48:56.077Z,13.67
2018-11-14T10:49:56.106Z,13.54
2018-11-14T10:50:56.299Z,13.63
2018-11-14T10:51:55.879Z,13.65
2018-11-14T10:52:56.435Z,13.6
2018-11-14T10:53:56.447Z,13.65
2018-11-14T10:54:56.483Z,13.62
2018-11-14T10:55:56.232Z,13.6
2018-11-14T10:56:56.515Z,13.71
2018-11-14T10:57:56.552Z,13.59
2018-11-14T10:58:56.299Z,13.63
2018-11-14T10:59:56.316Z,13.65
2018-11-14T11:00:56.329Z,13.7
2018-11-14T11:01:56.093Z,13.67
2018-11-14T11:02:56.113Z,13.7
2018-11-14T11:03:56.131Z,13.68
2018-11-14T11:04:56.145Z,13.72
2018-11-14T11:05:56.178Z,13.67
2018-11-14T11:06:56.467Z,13.65
2018-11-14T11:07:56.250Z,13.68
2018-11-14T11:08:56.502Z,13.71
2018-11-14T11:09:56.522Z,13.63
2018-11-14T11:10:56.541Z,13.68
2018-11-14T11:11:56.852Z,13.71
2018-11-14T11:12:56.587Z,13.78
2018-11-14T11:13:56.835Z,13.71
2018-11-14T11:14:56.369Z,13.74
2018-11-14T11:15:56.938Z,13.74
2018-11-14T11:16:56.413Z,13.77
2018-11-14T11:17:56.706Z,13.85
2018-11-14T11:18:56.446Z,13.71
2018-11-14T11:19:56.742Z,13.68
2018-11-14T11:20:57.029Z,13.78
2018-11-14T11:21:56.516Z,13.68
2018-11-14T11:22:56.537Z,13.74
2018-11-14T11:23:56.831Z,13.79
2018-11-14T11:24:56.858Z,13.74
2018-11-14T11:25:56.874Z,13.78
2018-11-14T11:26:56.883Z,13.72
2018-11-14T11:27:57.172Z,13.81
2018-11-14T11:28:57.210Z,13.79
2018-11-14T11:29:56.957Z,13.86
2018-11-14T11:30:57.381Z,13.86
2018-11-14T11:31:57.159Z,14
2018-11-14T11:32:56.742Z,13.9
2018-11-14T11:33:57.040Z,13.97
2018-11-14T11:34:57.057Z,14.03
2018-11-14T11:35:56.812Z,13.99
2018-11-14T11:36:57.101Z,14
2018-11-14T11:37:56.917Z,13.99
2018-11-14T11:38:56.869Z,14
2018-11-14T11:39:56.901Z,13.99
2018-11-14T11:40:56.912Z,14.04
2018-11-14T11:41:56.937Z,14.04
2018-11-14T11:42:57.236Z,14
2018-11-14T11:43:57.249Z,14.03
2018-11-14T11:44:57.378Z,14.04
2018-11-14T11:45:57.286Z,14.14
2018-11-14T11:46:57.575Z,14.03
2018-11-14T11:47:57.597Z,14.1
2018-11-14T11:48:57.617Z,14.11
2018-11-14T11:49:57.646Z,14.14
2018-11-14T11:50:57.880Z,14.07
2018-11-14T11:51:57.153Z,14.15
2018-11-14T11:52:57.175Z,14.23
2018-11-14T11:53:57.731Z,14.11
2018-11-14T11:54:57.219Z,14.14
2018-11-14T11:55:57.781Z,14.14
2018-11-14T11:56:57.533Z,14.17
2018-11-14T11:57:57.551Z,14.12
2018-11-14T11:58:57.570Z,14.17
2018-11-14T11:59:57.702Z,14.17
2018-11-14T12:00:57.336Z,14.23
2018-11-14T12:01:57.673Z,14.11
2018-11-14T12:02:57.391Z,14.18
2018-11-14T12:03:57.945Z,14.17
2018-11-14T12:04:57.429Z,14.17
2018-11-14T12:05:58.150Z,14.23
2018-11-14T12:06:58.003Z,14.28
2018-11-14T12:07:58.026Z,14.33
2018-11-14T12:08:58.052Z,14.3
2018-11-14T12:09:57.542Z,14.3
2018-11-14T12:10:58.470Z,14.28
2018-11-14T12:11:57.839Z,14.47
2018-11-14T12:12:57.938Z,14.3
2018-11-14T12:13:57.702Z,14.5
2018-11-14T12:14:57.903Z,14.53
2018-11-14T12:15:57.662Z,14.45
2018-11-14T12:16:57.695Z,14.51
2018-11-14T12:17:58.175Z,14.44
2018-11-14T12:18:58.140Z,14.59
2018-11-14T12:19:58.014Z,14.55
2018-11-14T12:20:58.044Z,14.58
2018-11-14T12:21:57.784Z,14.62
2018-11-14T12:22:58.079Z,14.6
2018-11-14T12:23:58.094Z,14.54
2018-11-14T12:24:58.554Z,14.66
2018-11-14T12:25:57.871Z,14.62
2018-11-14T12:26:57.900Z,14.7
2018-11-14T12:27:58.453Z,14.63
2018-11-14T12:28:58.479Z,14.72
2018-11-14T12:29:58.381Z,14.62
2018-11-14T12:30:58.788Z,14.73
2018-11-14T12:31:58.287Z,14.66
2018-11-14T12:32:58.301Z,14.79
2018-11-14T12:33:58.318Z,14.73
2018-11-14T12:34:58.489Z,14.81
2018-11-14T12:35:58.351Z,14.82
2018-11-14T12:36:58.605Z,14.86
2018-11-14T12:37:58.660Z,14.85
2018-11-14T12:38:58.528Z,14.89
2018-11-14T12:39:58.173Z,14.85
2018-11-14T12:40:58.739Z,14.84
2018-11-14T12:41:58.488Z,14.82
2018-11-14T12:42:58.501Z,14.88
2018-11-14T12:43:58.271Z,14.89
2018-11-14T12:44:58.391Z,14.91
2018-11-14T12:45:58.834Z,14.84
2018-11-14T12:46:58.322Z,14.86
2018-11-14T12:47:58.354Z,14.94
2018-11-14T12:48:58.906Z,14.92
2018-11-14T12:49:58.402Z,15.07
2018-11-14T12:50:58.970Z,15.07
2018-11-14T12:51:58.696Z,15.02
2018-11-14T12:52:58.452Z,14.99
2018-11-14T12:53:58.469Z,15.07
2018-11-14T12:54:58.756Z,15.07
2018-11-14T12:55:58.792Z,15.14
2018-11-14T12:56:58.805Z,15.11